Главная страница
METAR-TAF:

METAR-TAF

Аэропорты :

Кастамону, Турция

широта: 41-19-01N, долгота: 33-47-46E, высота над уровнем моря: 1073 м

Текущие метеонаблюдения

Эта сводка был подготовлена 9 часа и 44 минут назад, в 12:50 UTC
Ветер 8 Узел от северно-северо-западный
Температура 30°C
Влажность 25%
Давление 1012 hPa
Видимость 10 км и более
Нет облачности ниже 1500 м, и нет кучево-дождевой облачности

METAR: LTAL 171250Z 33008KT CAVOK 30/08 Q1012

Время: 01:34 (22:34 UTC)

Прогноз

Эта сводка был подготовлена 8 часа и 54 минут назад, в 13:40 UTC
Прогноз действительный с 17-го 15 UTC до 17-го 24 UTC
Ветер 8 Узел от северно-северо-западный
Видимость 10 км и более
небольшая облачность на высоте 3600 фута

TAF: LTAL 171340Z 1715/1724 33008KT 9999 FEW036

Метеонаблюдения и прогнозы для более 4000 аэропортов (сводки METAR и TAF).

Имеющиеся станции представлены на карте желтыми и красными точками.

Чтобы увидеть название станции, наведите на нее мышь.

Затем щелкните, чтобы увидеть метеонаблюдения и метеопрогнозы.

Управление картой: чтобы увеличить масштаб, щелкните зеленые кнопки с черным крестиком; чтобы уменьшить масштаб, щелкните зеленую кнопку с тире; для просмотра соседних карт щелкайте зеленые стрелки.


METAR-TAF: